Flight Track Log - Related Links

Times and Time Zones

All times are in EDT time to prevent confusion due to time zone crossing. See the N5316G flight status page for this flight to view local times or setup timezone preferences in your user account.

Time Position Orientation Groundspeed Altitude Reporting Facility
EDT Latitude Longitude Course Direction KTS MPH feet Rate Location/Type
Sun 07:00:49 PM 34.1906 -118.4922 338° Northwest 85 98 1,800  Level Los Angeles Center
Sun 07:01:51 PM 34.1725 -118.5086 217° Southwest 81 93 2,600 726 Climbing Los Angeles Center
Sun 07:02:53 PM 34.1586 -118.5250 224° Southwest 74 85 3,300 677 Climbing Los Angeles Center
Sun 07:03:55 PM 34.1494 -118.5431 238° Southwest 69 79 4,000 629 Climbing Los Angeles Center
Sun 07:04:57 PM 34.1475 -118.5692 265° West 65 75 4,600 576 Climbing Los Angeles Center
Sun 07:06:00 PM 34.3452 -118.6226 338° Northwest  Level FlightAware Approximate
Sun 07:06:00 PM 34.1456 -118.5928 264° West 68 78 5,200  Level Los Angeles Center
Sun 07:07:02 PM 34.1542 -118.6089 303° West 74 85 5,800 485 Climbing Los Angeles Center
Sun 07:08:16 PM 34.1742 -118.6078 North 78 90 6,300 441 Climbing Los Angeles Center
Sun 07:09:18 PM 34.2011 -118.6050 North 79 91 6,800 532 Climbing Los Angeles Center
Sun 07:10:20 PM 34.2297 -118.6067 357° North 83 96 7,400 484 Climbing Los Angeles Center
Sun 07:11:22 PM 34.2533 -118.6056 North 85 98 7,800 384 Climbing Los Angeles Center
Sun 07:12:25 PM 34.2775 -118.6078 356° North 86 99 8,200 384 Climbing Los Angeles Center
Sun 07:13:27 PM 34.3014 -118.6111 353° North 87 100 8,600 341 Climbing Los Angeles Center
Sun 07:14:28 PM 34.3206 -118.6197 340° North 91 105 8,900 339 Climbing Los Angeles Center
Sun 07:15:31 PM 34.3508 -118.6314 342° North 94 108 9,300 336 Climbing Los Angeles Center
Sun 07:16:33 PM 34.3803 -118.6469 336° Northwest 96 110 9,600 265 Climbing Los Angeles Center
Sun 07:17:47 PM 34.4056 -118.6636 331° Northwest 104 120 9,900 175 Climbing Los Angeles Center
Sun 07:18:50 PM 34.4372 -118.6836 332° Northwest 109 125 10,000 48 Climbing Los Angeles Center
Sun 07:19:52 PM 34.4678 -118.6994 337° Northwest 119 137 10,000  Level Los Angeles Center
Sun 07:20:54 PM 34.5000 -118.7156 338° Northwest 125 144 10,000  Level Los Angeles Center
Sun 07:21:56 PM 34.5378 -118.7308 342° North 119 137 10,000  Level Los Angeles Center
Sun 07:22:58 PM 34.5636 -118.7419 340° North 123 142 10,000  Level Los Angeles Center
Sun 07:24:00 PM 34.6022 -118.7592 340° North 122 140 10,000 48 Level Los Angeles Center
Sun 07:25:02 PM 34.6333 -118.7742 338° Northwest 119 137 10,100 48 Climbing Los Angeles Center
Sun 07:26:04 PM 34.6636 -118.7911 335° Northwest 121 139 10,100  Level Los Angeles Center
Sun 07:27:06 PM 34.6947 -118.8064 338° Northwest 120 138 10,100  Level Los Angeles Center
Sun 07:28:08 PM 34.7303 -118.8222 340° North 115 132 10,100  Level Los Angeles Center
Sun 07:29:11 PM 34.7608 -118.8392 336° Northwest 118 136 10,100  Level Los Angeles Center
Sun 07:30:13 PM 34.7833 -118.8519 335° Northwest 115 132 10,100  Level Los Angeles Center
Sun 07:31:15 PM 34.8172 -118.8714 335° Northwest 113 130 10,100  Level Los Angeles Center
Sun 07:32:17 PM 34.8508 -118.8800 348° North 119 137 10,100  Level Los Angeles Center
Sun 07:33:19 PM 34.8842 -118.8856 352° North 120 138 10,100 -48 Level Los Angeles Center
Sun 07:34:21 PM 34.9194 -118.8983 343° North 123 142 10,000 -48 Descending Los Angeles Center
Sun 07:35:23 PM 34.9525 -118.9106 343° North 123 142 10,000  Level Los Angeles Center
Sun 07:36:25 PM 34.9906 -118.9258 342° North 121 139 10,000  Level Los Angeles Center
Sun 07:37:27 PM 35.0222 -118.9383 342° North 120 138 10,000  Level Los Angeles Center
Sun 07:38:29 PM 35.0531 -118.9494 344° North 118 136 10,000  Level Los Angeles Center
Sun 07:39:31 PM 35.0842 -118.9639 339° North 119 137 10,000  Level Los Angeles Center
Sun 07:40:34 PM 35.1122 -118.9811 333° Northwest 114 131 10,000  Level Los Angeles Center
Sun 07:41:36 PM 35.1433 -118.9953 340° North 118 136 10,000  Level Los Angeles Center
Sun 07:42:38 PM 35.1803 -119.0117 340° North 118 136 10,000  Level Los Angeles Center
Sun 07:43:40 PM 35.2122 -119.0239 343° North 120 138 10,000  Level Los Angeles Center
Sun 07:44:42 PM 35.2450 -119.0364 343° North 121 139 10,000  Level Los Angeles Center
Sun 07:45:44 PM 35.2758 -119.0522 337° Northwest 121 139 10,000  Level Los Angeles Center
Sun 07:46:46 PM 35.3081 -119.0658 341° North 121 139 10,000  Level Los Angeles Center
Sun 07:47:48 PM 35.3464 -119.0825 340° North 122 140 10,000  Level Los Angeles Center
Sun 07:48:50 PM 35.3775 -119.0981 338° Northwest 122 140 10,000  Level Los Angeles Center
Sun 07:49:53 PM 35.4089 -119.1119 340° North 121 139 10,000  Level Los Angeles Center
Sun 07:50:54 PM 35.4336 -119.1233 339° North 120 138 10,000  Level Los Angeles Center
Sun 07:51:57 PM 35.4714 -119.1400 340° North 120 138 10,000  Level Los Angeles Center
Sun 07:52:59 PM 35.5039 -119.1561 338° Northwest 122 140 10,000  Level Los Angeles Center
Sun 07:54:01 PM 35.5411 -119.1744 338° Northwest 122 140 10,000  Level Los Angeles Center
Sun 07:55:03 PM 35.5722 -119.1897 338° Northwest 121 139 10,000  Level Los Angeles Center
Sun 07:56:05 PM 35.6050 -119.2056 339° North 123 142 10,000  Level Los Angeles Center
Sun 07:57:07 PM 35.6358 -119.2206 338° Northwest 121 139 10,000  Level Los Angeles Center
Sun 07:58:09 PM 35.6669 -119.2375 336° Northwest 122 140 10,000  Level Los Angeles Center
Sun 07:59:11 PM 35.7067 -119.2556 340° North 124 143 10,000  Level Los Angeles Center
Sun 08:00:14 PM 35.7397 -119.2703 340° North 126 145 10,000  Level Los Angeles Center
Sun 08:01:16 PM 35.7739 -119.2853 340° North 129 148 10,000  Level Los Angeles Center
Sun 08:02:18 PM 35.8067 -119.3003 340° North 127 146 10,000  Level Los Angeles Center
Sun 08:03:20 PM 35.8389 -119.3153 339° North 125 144 10,000  Level Los Angeles Center
Sun 08:04:22 PM 35.8711 -119.3294 340° North 124 143 10,000  Level Los Angeles Center
Sun 08:05:24 PM 35.9100 -119.3478 339° North 124 143 10,000  Level Los Angeles Center
Sun 08:06:26 PM 35.9436 -119.3633 339° North 126 145 10,000  Level Los Angeles Center
Sun 08:07:28 PM 35.9761 -119.3797 338° Northwest 126 145 10,000  Level Los Angeles Center
Sun 08:08:30 PM 36.0089 -119.3958 338° Northwest 126 145 10,000  Level Los Angeles Center
Sun 08:09:32 PM 36.0422 -119.4117 339° North 127 146 10,000  Level Los Angeles Center
Sun 08:10:35 PM 36.0811 -119.4300 339° North 126 145 10,000  Level Los Angeles Center
Sun 08:11:37 PM 36.1139 -119.4461 338° Northwest 127 146 10,000  Level Los Angeles Center
Sun 08:12:39 PM 36.1472 -119.4611 340° North 127 146 10,000  Level Los Angeles Center
Sun 08:13:41 PM 36.1803 -119.4761 340° North 127 146 10,000  Level Los Angeles Center
Sun 08:14:43 PM 36.2131 -119.4914 339° North 126 145 10,000  Level Los Angeles Center
Sun 08:15:45 PM 36.2478 -119.5086 338° Northwest 130 150 10,000  Level Los Angeles Center
Sun 08:16:47 PM 36.2875 -119.5292 337° Northwest 129 148 10,000  Level Los Angeles Center
Sun 08:17:49 PM 36.3211 -119.5447 340° North 129 148 10,000  Level Los Angeles Center
Sun 08:18:56 PM 36.3558 -119.5589 342° North 131 151 10,000  Level Oakland Center
Sun 08:19:57 PM 36.3894 -119.5756 338° Northwest 130 150 10,000  Level Oakland Center
Sun 08:20:59 PM 36.4311 -119.5944 340° North 133 153 10,000  Level Oakland Center
Sun 08:22:00 PM 36.4650 -119.6103 339° North 131 151 10,000  Level Oakland Center
Sun 08:23:02 PM 36.4989 -119.6267 339° North 131 151 10,000  Level Oakland Center
Sun 08:24:03 PM 36.5325 -119.6428 339° North 130 150 10,000  Level Oakland Center
Sun 08:25:05 PM 36.5667 -119.6594 339° North 132 152 10,000  Level Oakland Center
Sun 08:26:06 PM 36.6017 -119.6764 339° North 133 153 10,000  Level Oakland Center
Sun 08:27:07 PM 36.6353 -119.6931 338° Northwest 131 151 10,000  Level Oakland Center
Sun 08:28:09 PM 36.6703 -119.7106 338° Northwest 135 155 10,000  Level Oakland Center
Sun 08:29:10 PM 36.7108 -119.7311 338° Northwest 133 153 10,000  Level Oakland Center
Sun 08:30:12 PM 36.7453 -119.7486 338° Northwest 134 154 10,000  Level Oakland Center
Sun 08:31:13 PM 36.7803 -119.7650 339° North 134 154 10,000  Level Oakland Center
Sun 08:32:14 PM 36.8150 -119.7825 338° Northwest 134 154 10,000  Level Oakland Center
Sun 08:33:16 PM 36.8489 -119.7986 339° North 132 152 10,000  Level Oakland Center
Sun 08:34:17 PM 36.8839 -119.8158 339° North 134 154 10,000  Level Oakland Center
Sun 08:35:19 PM 36.9144 -119.8408 327° Northwest 132 152 10,000  Level Oakland Center
Sun 08:36:20 PM 36.9425 -119.8708 319° Northwest 132 152 10,000  Level Oakland Center
Sun 08:37:22 PM 36.9758 -119.9064 320° Northwest 132 152 10,000  Level Oakland Center
Sun 08:38:23 PM 37.0044 -119.9369 320° Northwest 134 154 10,000  Level Oakland Center
Sun 08:39:24 PM 37.0331 -119.9669 320° Northwest 135 155 10,000  Level Oakland Center
Sun 08:40:26 PM 37.0614 -119.9947 322° Northwest 131 151 10,000  Level Oakland Center
Sun 08:41:27 PM 37.0928 -120.0258 322° Northwest 129 148 10,000  Level Oakland Center
Sun 08:42:28 PM 37.1222 -120.0547 322° Northwest 133 153 10,000  Level Oakland Center
Sun 08:43:30 PM 37.1519 -120.0833 323° Northwest 133 153 10,000  Level Oakland Center
Sun 08:44:31 PM 37.1822 -120.1111 324° Northwest 135 155 10,000  Level Oakland Center
Sun 08:45:32 PM 37.2117 -120.1403 322° Northwest 133 153 10,000  Level Oakland Center
Sun 08:46:34 PM 37.2417 -120.1689 323° Northwest 135 155 10,000  Level Oakland Center
Sun 08:47:35 PM 37.2717 -120.2008 320° Northwest 141 162 10,000  Level Oakland Center
Sun 08:48:36 PM 37.3019 -120.2297 323° Northwest 138 159 10,000  Level Oakland Center
Sun 08:49:38 PM 37.3311 -120.2625 318° Northwest 140 161 10,000  Level Oakland Center
Sun 08:50:39 PM 37.3608 -120.2931 321° Northwest 142 163 10,000  Level Oakland Center
Sun 08:51:41 PM 37.3958 -120.3289 321° Northwest 145 167 10,000  Level Oakland Center
Sun 08:52:42 PM 37.4264 -120.3581 323° Northwest 145 167 10,000  Level Oakland Center
Sun 08:53:43 PM 37.4567 -120.3883 322° Northwest 142 163 10,000 -49 Level Oakland Center
Sun 08:54:45 PM 37.4889 -120.4139 328° Northwest 151 174 9,900 -49 Descending Oakland Center
Sun 08:55:46 PM 37.5186 -120.4475 318° Northwest 148 170 9,900 -197 Level Oakland Center
Sun 08:56:47 PM 37.5542 -120.4697 334° Northwest 161 185 9,500 -390 Descending Oakland Center
Sun 08:57:49 PM 37.5839 -120.5044 317° Northwest 148 170 9,100 -439 Descending Oakland Center
Sun 08:58:50 PM 37.6172 -120.5364 323° Northwest 149 171 8,600 -488 Descending Oakland Center
Sun 08:59:52 PM 37.6525 -120.5597 332° Northwest 147 169 8,100 -341 Descending Oakland Center
Sun 09:00:53 PM 37.7017 -120.5556 North 147 169 7,900 -148 Descending Oakland Center
Sun 09:01:54 PM 37.7392 -120.5533 North 138 159 7,800 -293 Descending Oakland Center
Sun 09:02:56 PM 37.7783 -120.5592 353° North 140 161 7,300 -488 Descending Oakland Center
Sun 09:03:57 PM 37.8175 -120.5714 346° North 143 165 6,800 -488 Descending Oakland Center
Sun 09:04:59 PM 37.8586 -120.5806 350° North 147 169 6,300 -488 Descending Oakland Center
Sun 09:06:00 PM 37.8994 -120.5886 351° North 148 170 5,800 -293 Descending Oakland Center
Sun 09:07:02 PM 37.9381 -120.5953 352° North 148 170 5,700 -97 Descending Oakland Center

Login

Don't have an account? Register now (free) for customized features, flight alerts, and more!